sensor_id;sensor_type;location;lat;lon;timestamp;P1;durP1;ratioP1;P2;durP2;ratioP2
35634;SDS011;21757;43.610;1.440;2023-04-15T00:01:23;36.55;;;6.25;;
35634;SDS011;21757;43.610;1.440;2023-04-15T00:03:50;35.33;;;5.97;;
35634;SDS011;21757;43.610;1.440;2023-04-15T00:06:17;36.10;;;6.97;;
35634;SDS011;21757;43.610;1.440;2023-04-15T00:08:45;35.33;;;6.10;;
35634;SDS011;21757;43.610;1.440;2023-04-15T00:11:11;32.83;;;5.60;;
35634;SDS011;21757;43.610;1.440;2023-04-15T00:13:38;39.55;;;6.22;;
35634;SDS011;21757;43.610;1.440;2023-04-15T00:16:04;30.80;;;5.45;;
35634;SDS011;21757;43.610;1.440;2023-04-15T00:18:31;38.33;;;5.95;;
35634;SDS011;21757;43.610;1.440;2023-04-15T00:20:57;30.02;;;4.93;;
35634;SDS011;21757;43.610;1.440;2023-04-15T00:23:23;42.22;;;6.60;;
35634;SDS011;21757;43.610;1.440;2023-04-15T00:25:49;30.98;;;5.32;;
35634;SDS011;21757;43.610;1.440;2023-04-15T00:28:16;40.85;;;6.85;;
35634;SDS011;21757;43.610;1.440;2023-04-15T00:30:42;35.58;;;6.22;;
35634;SDS011;21757;43.610;1.440;2023-04-15T00:33:08;37.15;;;5.82;;
35634;SDS011;21757;43.610;1.440;2023-04-15T00:35:34;37.78;;;6.13;;
35634;SDS011;21757;43.610;1.440;2023-04-15T00:38:01;35.00;;;6.45;;
35634;SDS011;21757;43.610;1.440;2023-04-15T00:40:28;33.33;;;5.20;;
35634;SDS011;21757;43.610;1.440;2023-04-15T00:42:54;34.78;;;6.38;;
35634;SDS011;21757;43.610;1.440;2023-04-15T00:45:20;36.08;;;6.30;;
35634;SDS011;21757;43.610;1.440;2023-04-15T00:47:46;37.00;;;6.78;;
35634;SDS011;21757;43.610;1.440;2023-04-15T00:50:12;34.80;;;5.95;;
35634;SDS011;21757;43.610;1.440;2023-04-15T00:52:38;42.13;;;6.38;;
35634;SDS011;21757;43.610;1.440;2023-04-15T00:55:05;36.08;;;6.03;;
35634;SDS011;21757;43.610;1.440;2023-04-15T00:57:31;33.88;;;5.65;;
35634;SDS011;21757;43.610;1.440;2023-04-15T00:59:57;27.95;;;5.30;;
35634;SDS011;21757;43.610;1.440;2023-04-15T01:02:24;36.83;;;6.03;;
35634;SDS011;21757;43.610;1.440;2023-04-15T01:04:49;36.65;;;5.65;;
35634;SDS011;21757;43.610;1.440;2023-04-15T01:07:16;33.33;;;5.65;;
35634;SDS011;21757;43.610;1.440;2023-04-15T01:09:41;29.63;;;5.53;;
35634;SDS011;21757;43.610;1.440;2023-04-15T01:12:09;34.60;;;5.55;;
35634;SDS011;21757;43.610;1.440;2023-04-15T01:14:38;30.77;;;5.40;;
35634;SDS011;21757;43.610;1.440;2023-04-15T01:17:03;35.83;;;6.05;;
35634;SDS011;21757;43.610;1.440;2023-04-15T01:19:29;33.33;;;5.28;;
35634;SDS011;21757;43.610;1.440;2023-04-15T01:21:55;39.78;;;6.35;;
35634;SDS011;21757;43.610;1.440;2023-04-15T01:24:22;31.67;;;5.28;;
35634;SDS011;21757;43.610;1.440;2023-04-15T01:26:52;30.02;;;5.35;;
35634;SDS011;21757;43.610;1.440;2023-04-15T01:29:18;35.17;;;6.18;;
35634;SDS011;21757;43.610;1.440;2023-04-15T01:31:53;35.03;;;5.57;;
35634;SDS011;21757;43.610;1.440;2023-04-15T01:34:20;37.88;;;6.63;;
35634;SDS011;21757;43.610;1.440;2023-04-15T01:36:46;32.67;;;5.28;;
35634;SDS011;21757;43.610;1.440;2023-04-15T01:39:12;36.83;;;5.63;;
35634;SDS011;21757;43.610;1.440;2023-04-15T01:41:38;23.42;;;4.10;;
35634;SDS011;21757;43.610;1.440;2023-04-15T01:44:07;18.90;;;3.70;;
35634;SDS011;21757;43.610;1.440;2023-04-15T01:46:33;23.63;;;4.13;;
35634;SDS011;21757;43.610;1.440;2023-04-15T01:48:58;20.65;;;3.80;;
35634;SDS011;21757;43.610;1.440;2023-04-15T01:51:24;18.48;;;3.90;;
35634;SDS011;21757;43.610;1.440;2023-04-15T01:53:51;17.90;;;3.15;;
35634;SDS011;21757;43.610;1.440;2023-04-15T01:56:21;19.83;;;3.30;;
35634;SDS011;21757;43.610;1.440;2023-04-15T01:58:48;20.35;;;3.00;;
35634;SDS011;21757;43.610;1.440;2023-04-15T02:01:14;14.15;;;2.05;;
35634;SDS011;21757;43.610;1.440;2023-04-15T02:03:40;20.80;;;2.75;;
35634;SDS011;21757;43.610;1.440;2023-04-15T02:06:06;14.43;;;2.63;;
35634;SDS011;21757;43.610;1.440;2023-04-15T02:08:32;11.43;;;2.03;;
35634;SDS011;21757;43.610;1.440;2023-04-15T02:10:58;19.48;;;3.53;;
35634;SDS011;21757;43.610;1.440;2023-04-15T02:13:25;16.00;;;2.97;;
35634;SDS011;21757;43.610;1.440;2023-04-15T02:15:51;18.10;;;3.13;;
35634;SDS011;21757;43.610;1.440;2023-04-15T02:18:18;18.50;;;3.55;;
35634;SDS011;21757;43.610;1.440;2023-04-15T02:20:44;21.10;;;3.38;;
35634;SDS011;21757;43.610;1.440;2023-04-15T02:23:11;16.58;;;3.08;;
35634;SDS011;21757;43.610;1.440;2023-04-15T02:25:37;26.13;;;3.60;;
35634;SDS011;21757;43.610;1.440;2023-04-15T02:28:05;17.73;;;3.15;;
35634;SDS011;21757;43.610;1.440;2023-04-15T02:30:31;21.08;;;3.20;;
35634;SDS011;21757;43.610;1.440;2023-04-15T02:32:59;19.35;;;3.53;;
35634;SDS011;21757;43.610;1.440;2023-04-15T02:35:25;19.38;;;3.17;;
35634;SDS011;21757;43.610;1.440;2023-04-15T02:37:52;17.10;;;3.65;;
35634;SDS011;21757;43.610;1.440;2023-04-15T02:40:18;16.67;;;3.08;;
35634;SDS011;21757;43.610;1.440;2023-04-15T02:42:43;15.73;;;2.85;;
35634;SDS011;21757;43.610;1.440;2023-04-15T02:45:09;17.30;;;3.25;;
35634;SDS011;21757;43.610;1.440;2023-04-15T02:47:38;16.63;;;3.05;;
35634;SDS011;21757;43.610;1.440;2023-04-15T02:50:09;15.52;;;2.90;;
35634;SDS011;21757;43.610;1.440;2023-04-15T02:52:38;18.33;;;2.78;;
35634;SDS011;21757;43.610;1.440;2023-04-15T02:55:05;22.50;;;3.33;;
35634;SDS011;21757;43.610;1.440;2023-04-15T02:57:32;24.95;;;3.30;;
35634;SDS011;21757;43.610;1.440;2023-04-15T02:59:59;20.55;;;3.90;;
35634;SDS011;21757;43.610;1.440;2023-04-15T03:02:24;23.77;;;4.00;;
35634;SDS011;21757;43.610;1.440;2023-04-15T03:04:50;23.13;;;3.55;;
35634;SDS011;21757;43.610;1.440;2023-04-15T03:07:16;22.73;;;3.15;;
35634;SDS011;21757;43.610;1.440;2023-04-15T03:09:42;16.65;;;3.42;;
35634;SDS011;21757;43.610;1.440;2023-04-15T03:12:08;21.60;;;3.75;;
35634;SDS011;21757;43.610;1.440;2023-04-15T03:14:34;18.48;;;2.97;;
35634;SDS011;21757;43.610;1.440;2023-04-15T03:17:00;18.25;;;2.70;;
35634;SDS011;21757;43.610;1.440;2023-04-15T03:19:25;12.23;;;2.30;;
35634;SDS011;21757;43.610;1.440;2023-04-15T03:21:51;14.15;;;2.30;;
35634;SDS011;21757;43.610;1.440;2023-04-15T03:24:17;12.75;;;2.10;;
35634;SDS011;21757;43.610;1.440;2023-04-15T03:26:43;11.10;;;1.80;;
35634;SDS011;21757;43.610;1.440;2023-04-15T03:29:09;13.13;;;1.67;;
35634;SDS011;21757;43.610;1.440;2023-04-15T03:31:35;8.25;;;1.65;;
35634;SDS011;21757;43.610;1.440;2023-04-15T03:34:00;9.15;;;1.40;;
35634;SDS011;21757;43.610;1.440;2023-04-15T03:36:28;5.80;;;1.42;;
35634;SDS011;21757;43.610;1.440;2023-04-15T03:38:56;8.07;;;1.23;;
35634;SDS011;21757;43.610;1.440;2023-04-15T03:41:22;8.88;;;1.45;;
35634;SDS011;21757;43.610;1.440;2023-04-15T03:43:48;8.20;;;1.67;;
35634;SDS011;21757;43.610;1.440;2023-04-15T03:46:16;10.43;;;1.70;;
35634;SDS011;21757;43.610;1.440;2023-04-15T03:48:42;10.80;;;1.90;;
35634;SDS011;21757;43.610;1.440;2023-04-15T03:51:08;12.50;;;2.13;;
35634;SDS011;21757;43.610;1.440;2023-04-15T03:53:33;8.82;;;1.63;;
35634;SDS011;21757;43.610;1.440;2023-04-15T03:55:59;13.10;;;2.08;;
35634;SDS011;21757;43.610;1.440;2023-04-15T03:58:25;21.70;;;3.20;;
35634;SDS011;21757;43.610;1.440;2023-04-15T04:00:51;17.15;;;2.47;;
35634;SDS011;21757;43.610;1.440;2023-04-15T04:03:17;13.70;;;2.33;;
35634;SDS011;21757;43.610;1.440;2023-04-15T04:05:43;16.77;;;2.47;;
35634;SDS011;21757;43.610;1.440;2023-04-15T04:08:08;12.40;;;2.90;;
35634;SDS011;21757;43.610;1.440;2023-04-15T04:10:35;15.38;;;2.38;;
35634;SDS011;21757;43.610;1.440;2023-04-15T04:13:00;14.13;;;2.63;;
35634;SDS011;21757;43.610;1.440;2023-04-15T04:15:26;9.15;;;2.05;;
35634;SDS011;21757;43.610;1.440;2023-04-15T04:17:52;17.35;;;2.88;;
35634;SDS011;21757;43.610;1.440;2023-04-15T04:20:17;19.27;;;2.92;;
35634;SDS011;21757;43.610;1.440;2023-04-15T04:22:43;19.00;;;3.45;;
35634;SDS011;21757;43.610;1.440;2023-04-15T04:25:09;20.00;;;3.25;;
35634;SDS011;21757;43.610;1.440;2023-04-15T04:27:35;15.00;;;2.33;;
35634;SDS011;21757;43.610;1.440;2023-04-15T04:30:01;12.32;;;2.55;;
35634;SDS011;21757;43.610;1.440;2023-04-15T04:32:28;19.92;;;2.55;;
35634;SDS011;21757;43.610;1.440;2023-04-15T04:34:54;14.75;;;2.75;;
35634;SDS011;21757;43.610;1.440;2023-04-15T04:37:20;20.38;;;3.13;;
35634;SDS011;21757;43.610;1.440;2023-04-15T04:39:47;19.35;;;3.10;;
35634;SDS011;21757;43.610;1.440;2023-04-15T04:42:12;25.30;;;3.38;;
35634;SDS011;21757;43.610;1.440;2023-04-15T04:44:38;23.02;;;3.17;;
35634;SDS011;21757;43.610;1.440;2023-04-15T04:47:04;20.00;;;3.10;;
35634;SDS011;21757;43.610;1.440;2023-04-15T04:49:31;19.92;;;2.80;;
35634;SDS011;21757;43.610;1.440;2023-04-15T04:51:57;19.83;;;3.10;;
35634;SDS011;21757;43.610;1.440;2023-04-15T04:54:23;19.92;;;2.85;;
35634;SDS011;21757;43.610;1.440;2023-04-15T04:56:48;21.20;;;2.83;;
35634;SDS011;21757;43.610;1.440;2023-04-15T04:59:14;25.90;;;3.40;;
35634;SDS011;21757;43.610;1.440;2023-04-15T05:01:40;24.27;;;3.47;;
35634;SDS011;21757;43.610;1.440;2023-04-15T05:04:06;26.85;;;3.30;;
35634;SDS011;21757;43.610;1.440;2023-04-15T05:06:31;18.60;;;2.90;;
35634;SDS011;21757;43.610;1.440;2023-04-15T05:08:57;23.95;;;4.30;;
35634;SDS011;21757;43.610;1.440;2023-04-15T05:11:23;23.45;;;3.45;;
35634;SDS011;21757;43.610;1.440;2023-04-15T05:13:49;20.05;;;3.05;;
35634;SDS011;21757;43.610;1.440;2023-04-15T05:16:14;18.50;;;3.03;;
35634;SDS011;21757;43.610;1.440;2023-04-15T05:18:40;20.77;;;3.70;;
35634;SDS011;21757;43.610;1.440;2023-04-15T05:21:06;23.02;;;3.53;;
35634;SDS011;21757;43.610;1.440;2023-04-15T05:23:32;18.15;;;3.35;;
35634;SDS011;21757;43.610;1.440;2023-04-15T05:25:58;15.82;;;2.88;;
35634;SDS011;21757;43.610;1.440;2023-04-15T05:28:23;17.25;;;2.70;;
35634;SDS011;21757;43.610;1.440;2023-04-15T05:30:49;19.17;;;2.78;;
35634;SDS011;21757;43.610;1.440;2023-04-15T05:33:15;12.85;;;2.30;;
35634;SDS011;21757;43.610;1.440;2023-04-15T05:35:41;12.38;;;2.40;;
35634;SDS011;21757;43.610;1.440;2023-04-15T05:38:07;15.27;;;2.85;;
35634;SDS011;21757;43.610;1.440;2023-04-15T05:40:32;10.30;;;2.20;;
35634;SDS011;21757;43.610;1.440;2023-04-15T05:42:58;18.02;;;2.40;;
35634;SDS011;21757;43.610;1.440;2023-04-15T05:45:24;16.15;;;2.65;;
35634;SDS011;21757;43.610;1.440;2023-04-15T05:47:49;11.73;;;2.20;;
35634;SDS011;21757;43.610;1.440;2023-04-15T05:50:17;19.30;;;2.65;;
35634;SDS011;21757;43.610;1.440;2023-04-15T05:52:44;13.55;;;2.40;;
35634;SDS011;21757;43.610;1.440;2023-04-15T05:55:12;11.50;;;2.03;;
35634;SDS011;21757;43.610;1.440;2023-04-15T05:57:38;15.63;;;2.83;;
35634;SDS011;21757;43.610;1.440;2023-04-15T06:00:04;11.70;;;1.80;;
35634;SDS011;21757;43.610;1.440;2023-04-15T06:02:30;19.65;;;3.13;;
35634;SDS011;21757;43.610;1.440;2023-04-15T06:04:56;12.32;;;2.30;;
35634;SDS011;21757;43.610;1.440;2023-04-15T06:07:22;11.48;;;1.90;;
35634;SDS011;21757;43.610;1.440;2023-04-15T06:09:48;10.40;;;1.98;;
35634;SDS011;21757;43.610;1.440;2023-04-15T06:12:14;7.97;;;1.40;;
35634;SDS011;21757;43.610;1.440;2023-04-15T06:14:41;12.00;;;2.92;;
35634;SDS011;21757;43.610;1.440;2023-04-15T06:17:07;6.05;;;1.50;;
35634;SDS011;21757;43.610;1.440;2023-04-15T06:19:33;13.27;;;3.78;;
35634;SDS011;21757;43.610;1.440;2023-04-15T06:22:00;10.52;;;1.95;;
35634;SDS011;21757;43.610;1.440;2023-04-15T06:24:27;6.28;;;1.27;;
35634;SDS011;21757;43.610;1.440;2023-04-15T06:26:52;14.93;;;1.95;;
35634;SDS011;21757;43.610;1.440;2023-04-15T06:29:18;7.10;;;1.50;;
35634;SDS011;21757;43.610;1.440;2023-04-15T06:31:45;9.75;;;1.77;;
35634;SDS011;21757;43.610;1.440;2023-04-15T06:34:11;5.80;;;0.82;;
35634;SDS011;21757;43.610;1.440;2023-04-15T06:36:37;3.58;;;0.73;;
35634;SDS011;21757;43.610;1.440;2023-04-15T06:39:03;5.60;;;1.00;;
35634;SDS011;21757;43.610;1.440;2023-04-15T06:41:28;6.03;;;1.00;;
35634;SDS011;21757;43.610;1.440;2023-04-15T06:43:54;3.97;;;0.75;;
35634;SDS011;21757;43.610;1.440;2023-04-15T06:46:20;4.60;;;0.90;;
35634;SDS011;21757;43.610;1.440;2023-04-15T06:48:46;8.00;;;1.23;;
35634;SDS011;21757;43.610;1.440;2023-04-15T06:51:12;5.00;;;0.95;;
35634;SDS011;21757;43.610;1.440;2023-04-15T06:53:37;7.43;;;1.10;;
35634;SDS011;21757;43.610;1.440;2023-04-15T06:56:06;7.80;;;1.52;;
35634;SDS011;21757;43.610;1.440;2023-04-15T06:58:35;10.38;;;1.30;;
35634;SDS011;21757;43.610;1.440;2023-04-15T07:01:01;7.38;;;1.13;;
35634;SDS011;21757;43.610;1.440;2023-04-15T07:03:27;7.82;;;1.65;;
35634;SDS011;21757;43.610;1.440;2023-04-15T07:05:53;9.13;;;1.20;;
35634;SDS011;21757;43.610;1.440;2023-04-15T07:08:19;11.40;;;1.40;;
35634;SDS011;21757;43.610;1.440;2023-04-15T07:10:45;6.22;;;1.40;;
35634;SDS011;21757;43.610;1.440;2023-04-15T07:13:13;5.15;;;1.23;;
35634;SDS011;21757;43.610;1.440;2023-04-15T07:15:38;7.30;;;1.20;;
35634;SDS011;21757;43.610;1.440;2023-04-15T07:18:05;9.05;;;1.52;;
35634;SDS011;21757;43.610;1.440;2023-04-15T07:20:31;9.70;;;1.50;;
35634;SDS011;21757;43.610;1.440;2023-04-15T07:22:57;8.70;;;1.35;;
35634;SDS011;21757;43.610;1.440;2023-04-15T07:25:23;7.43;;;1.38;;
35634;SDS011;21757;43.610;1.440;2023-04-15T07:27:48;10.45;;;1.35;;
35634;SDS011;21757;43.610;1.440;2023-04-15T07:30:14;6.20;;;1.30;;
35634;SDS011;21757;43.610;1.440;2023-04-15T07:32:41;7.25;;;1.30;;
35634;SDS011;21757;43.610;1.440;2023-04-15T07:35:06;5.47;;;1.17;;
35634;SDS011;21757;43.610;1.440;2023-04-15T07:37:33;9.32;;;1.40;;
35634;SDS011;21757;43.610;1.440;2023-04-15T07:40:00;10.50;;;1.45;;
35634;SDS011;21757;43.610;1.440;2023-04-15T07:42:26;14.35;;;1.65;;
35634;SDS011;21757;43.610;1.440;2023-04-15T07:44:53;11.80;;;1.80;;
35634;SDS011;21757;43.610;1.440;2023-04-15T07:47:19;12.18;;;1.65;;
35634;SDS011;21757;43.610;1.440;2023-04-15T07:49:44;12.45;;;1.50;;
35634;SDS011;21757;43.610;1.440;2023-04-15T07:52:11;11.23;;;1.50;;
35634;SDS011;21757;43.610;1.440;2023-04-15T07:54:37;12.60;;;1.67;;
35634;SDS011;21757;43.610;1.440;2023-04-15T07:57:02;9.75;;;1.90;;
35634;SDS011;21757;43.610;1.440;2023-04-15T07:59:28;8.85;;;1.90;;
35634;SDS011;21757;43.610;1.440;2023-04-15T08:01:55;9.45;;;2.17;;
35634;SDS011;21757;43.610;1.440;2023-04-15T08:04:21;8.90;;;1.60;;
35634;SDS011;21757;43.610;1.440;2023-04-15T08:06:47;12.55;;;1.70;;
35634;SDS011;21757;43.610;1.440;2023-04-15T08:09:14;10.50;;;2.00;;
35634;SDS011;21757;43.610;1.440;2023-04-15T08:11:40;9.25;;;1.55;;
35634;SDS011;21757;43.610;1.440;2023-04-15T08:14:06;16.13;;;2.13;;
35634;SDS011;21757;43.610;1.440;2023-04-15T08:16:32;12.13;;;1.80;;
35634;SDS011;21757;43.610;1.440;2023-04-15T08:18:58;15.13;;;1.75;;
35634;SDS011;21757;43.610;1.440;2023-04-15T08:21:24;11.30;;;1.83;;
35634;SDS011;21757;43.610;1.440;2023-04-15T08:23:50;10.77;;;2.00;;
35634;SDS011;21757;43.610;1.440;2023-04-15T08:26:17;14.15;;;1.88;;
35634;SDS011;21757;43.610;1.440;2023-04-15T08:28:44;13.82;;;1.73;;
35634;SDS011;21757;43.610;1.440;2023-04-15T08:31:11;10.45;;;1.48;;
35634;SDS011;21757;43.610;1.440;2023-04-15T08:33:38;9.55;;;1.58;;
35634;SDS011;21757;43.610;1.440;2023-04-15T08:36:04;11.25;;;1.70;;
35634;SDS011;21757;43.610;1.440;2023-04-15T08:38:31;10.30;;;1.60;;
35634;SDS011;21757;43.610;1.440;2023-04-15T08:40:59;9.73;;;1.70;;
35634;SDS011;21757;43.610;1.440;2023-04-15T08:43:31;7.88;;;1.75;;
35634;SDS011;21757;43.610;1.440;2023-04-15T08:45:59;12.45;;;2.10;;
35634;SDS011;21757;43.610;1.440;2023-04-15T08:48:27;9.68;;;1.98;;
35634;SDS011;21757;43.610;1.440;2023-04-15T08:50:56;14.32;;;2.00;;
35634;SDS011;21757;43.610;1.440;2023-04-15T08:53:23;11.63;;;2.10;;
35634;SDS011;21757;43.610;1.440;2023-04-15T08:55:50;12.00;;;1.95;;
35634;SDS011;21757;43.610;1.440;2023-04-15T08:58:16;11.50;;;1.73;;
35634;SDS011;21757;43.610;1.440;2023-04-15T09:00:43;11.52;;;1.70;;
35634;SDS011;21757;43.610;1.440;2023-04-15T09:03:10;7.43;;;1.80;;
35634;SDS011;21757;43.610;1.440;2023-04-15T09:05:36;21.10;;;2.25;;
35634;SDS011;21757;43.610;1.440;2023-04-15T09:08:02;9.35;;;1.90;;
35634;SDS011;21757;43.610;1.440;2023-04-15T09:10:29;10.25;;;1.75;;
35634;SDS011;21757;43.610;1.440;2023-04-15T09:12:55;11.45;;;2.20;;
35634;SDS011;21757;43.610;1.440;2023-04-15T09:15:23;10.48;;;2.17;;
35634;SDS011;21757;43.610;1.440;2023-04-15T09:17:56;8.63;;;2.08;;
35634;SDS011;21757;43.610;1.440;2023-04-15T09:20:22;7.80;;;2.33;;
35634;SDS011;21757;43.610;1.440;2023-04-15T09:22:49;12.77;;;2.58;;
35634;SDS011;21757;43.610;1.440;2023-04-15T09:27:54;14.25;;;2.50;;
35634;SDS011;21757;43.610;1.440;2023-04-15T09:33:01;15.05;;;3.95;;
35634;SDS011;21757;43.610;1.440;2023-04-15T09:35:32;14.38;;;2.72;;
35634;SDS011;21757;43.610;1.440;2023-04-15T09:40:39;7.20;;;1.92;;
35634;SDS011;21757;43.610;1.440;2023-04-15T09:43:06;14.15;;;2.10;;
35634;SDS011;21757;43.610;1.440;2023-04-15T09:45:33;10.00;;;1.80;;
35634;SDS011;21757;43.610;1.440;2023-04-15T09:48:19;7.50;;;1.55;;
35634;SDS011;21757;43.610;1.440;2023-04-15T09:50:49;5.60;;;1.20;;
35634;SDS011;21757;43.610;1.440;2023-04-15T09:53:21;7.63;;;1.67;;
35634;SDS011;21757;43.610;1.440;2023-04-15T09:58:20;10.80;;;2.40;;
35634;SDS011;21757;43.610;1.440;2023-04-15T10:00:48;11.85;;;2.45;;
35634;SDS011;21757;43.610;1.440;2023-04-15T10:03:19;10.25;;;1.75;;
35634;SDS011;21757;43.610;1.440;2023-04-15T10:05:50;9.80;;;1.77;;
35634;SDS011;21757;43.610;1.440;2023-04-15T10:08:18;8.38;;;3.03;;
35634;SDS011;21757;43.610;1.440;2023-04-15T10:10:46;11.32;;;1.88;;
35634;SDS011;21757;43.610;1.440;2023-04-15T10:13:13;6.70;;;1.45;;
35634;SDS011;21757;43.610;1.440;2023-04-15T10:15:42;7.05;;;1.77;;
35634;SDS011;21757;43.610;1.440;2023-04-15T10:18:11;11.80;;;2.35;;
35634;SDS011;21757;43.610;1.440;2023-04-15T10:20:40;9.85;;;2.08;;
35634;SDS011;21757;43.610;1.440;2023-04-15T10:23:07;13.55;;;2.50;;
35634;SDS011;21757;43.610;1.440;2023-04-15T10:25:33;8.00;;;1.73;;
35634;SDS011;21757;43.610;1.440;2023-04-15T10:28:01;6.72;;;1.52;;
35634;SDS011;21757;43.610;1.440;2023-04-15T10:30:27;9.52;;;2.10;;
35634;SDS011;21757;43.610;1.440;2023-04-15T10:32:53;9.68;;;1.80;;
35634;SDS011;21757;43.610;1.440;2023-04-15T10:35:20;9.90;;;2.17;;
35634;SDS011;21757;43.610;1.440;2023-04-15T10:37:47;4.38;;;1.10;;
35634;SDS011;21757;43.610;1.440;2023-04-15T10:40:31;9.05;;;1.30;;
35634;SDS011;21757;43.610;1.440;2023-04-15T10:43:00;7.30;;;1.27;;
35634;SDS011;21757;43.610;1.440;2023-04-15T10:45:34;8.27;;;1.40;;
35634;SDS011;21757;43.610;1.440;2023-04-15T10:48:01;8.25;;;1.58;;
35634;SDS011;21757;43.610;1.440;2023-04-15T10:50:32;8.68;;;1.67;;
35634;SDS011;21757;43.610;1.440;2023-04-15T10:52:58;6.85;;;1.60;;
35634;SDS011;21757;43.610;1.440;2023-04-15T10:55:32;7.50;;;1.80;;
35634;SDS011;21757;43.610;1.440;2023-04-15T10:57:59;10.48;;;1.60;;
35634;SDS011;21757;43.610;1.440;2023-04-15T11:00:32;11.18;;;1.85;;
35634;SDS011;21757;43.610;1.440;2023-04-15T11:03:07;7.60;;;1.70;;
35634;SDS011;21757;43.610;1.440;2023-04-15T11:08:05;8.65;;;2.22;;
35634;SDS011;21757;43.610;1.440;2023-04-15T11:13:05;9.48;;;1.60;;
35634;SDS011;21757;43.610;1.440;2023-04-15T11:15:44;7.97;;;1.85;;
35634;SDS011;21757;43.610;1.440;2023-04-15T11:20:41;6.63;;;1.38;;
35634;SDS011;21757;43.610;1.440;2023-04-15T11:23:11;6.65;;;1.77;;
35634;SDS011;21757;43.610;1.440;2023-04-15T11:25:38;6.95;;;1.70;;
35634;SDS011;21757;43.610;1.440;2023-04-15T11:28:04;9.40;;;1.65;;
35634;SDS011;21757;43.610;1.440;2023-04-15T11:30:35;4.60;;;1.45;;
35634;SDS011;21757;43.610;1.440;2023-04-15T11:33:08;7.55;;;1.48;;
35634;SDS011;21757;43.610;1.440;2023-04-15T11:35:36;6.63;;;1.58;;
35634;SDS011;21757;43.610;1.440;2023-04-15T11:38:05;7.57;;;2.22;;
35634;SDS011;21757;43.610;1.440;2023-04-15T11:43:15;6.93;;;1.38;;
35634;SDS011;21757;43.610;1.440;2023-04-15T11:48:13;6.88;;;1.95;;
35634;SDS011;21757;43.610;1.440;2023-04-15T11:50:39;6.25;;;1.33;;
35634;SDS011;21757;43.610;1.440;2023-04-15T11:53:09;7.45;;;1.30;;
35634;SDS011;21757;43.610;1.440;2023-04-15T11:58:15;4.70;;;1.48;;
35634;SDS011;21757;43.610;1.440;2023-04-15T12:13:52;5.72;;;1.60;;
35634;SDS011;21757;43.610;1.440;2023-04-15T12:16:20;6.15;;;1.30;;
35634;SDS011;21757;43.610;1.440;2023-04-15T12:18:49;6.88;;;1.80;;
35634;SDS011;21757;43.610;1.440;2023-04-15T12:21:23;7.75;;;1.85;;
35634;SDS011;21757;43.610;1.440;2023-04-15T12:23:51;6.97;;;1.30;;
35634;SDS011;21757;43.610;1.440;2023-04-15T12:26:17;6.13;;;1.25;;
35634;SDS011;21757;43.610;1.440;2023-04-15T12:29:01;6.00;;;1.60;;
35634;SDS011;21757;43.610;1.440;2023-04-15T12:31:34;6.40;;;1.40;;
35634;SDS011;21757;43.610;1.440;2023-04-15T12:34:01;4.05;;;1.33;;
35634;SDS011;21757;43.610;1.440;2023-04-15T12:36:27;6.07;;;1.65;;
35634;SDS011;21757;43.610;1.440;2023-04-15T12:38:57;5.07;;;1.30;;
35634;SDS011;21757;43.610;1.440;2023-04-15T12:41:24;8.57;;;1.85;;
35634;SDS011;21757;43.610;1.440;2023-04-15T12:43:51;6.03;;;1.23;;
35634;SDS011;21757;43.610;1.440;2023-04-15T12:46:16;4.43;;;1.42;;
35634;SDS011;21757;43.610;1.440;2023-04-15T12:48:42;5.68;;;1.10;;
35634;SDS011;21757;43.610;1.440;2023-04-15T12:51:08;7.30;;;1.70;;
35634;SDS011;21757;43.610;1.440;2023-04-15T12:53:34;6.15;;;1.58;;
35634;SDS011;21757;43.610;1.440;2023-04-15T12:56:15;3.65;;;1.48;;
35634;SDS011;21757;43.610;1.440;2023-04-15T13:02:07;2.72;;;0.93;;
35634;SDS011;21757;43.610;1.440;2023-04-15T13:04:33;4.28;;;1.25;;
35634;SDS011;21757;43.610;1.440;2023-04-15T13:09:54;6.00;;;1.48;;
35634;SDS011;21757;43.610;1.440;2023-04-15T13:12:35;2.97;;;1.30;;
35634;SDS011;21757;43.610;1.440;2023-04-15T13:18:29;6.28;;;1.60;;
35634;SDS011;21757;43.610;1.440;2023-04-15T13:21:08;4.20;;;0.98;;
35634;SDS011;21757;43.610;1.440;2023-04-15T13:23:36;3.95;;;1.17;;
35634;SDS011;21757;43.610;1.440;2023-04-15T13:26:05;5.60;;;1.50;;
35634;SDS011;21757;43.610;1.440;2023-04-15T13:28:59;9.15;;;1.40;;
35634;SDS011;21757;43.610;1.440;2023-04-15T13:31:32;4.60;;;1.15;;
35634;SDS011;21757;43.610;1.440;2023-04-15T13:34:08;6.40;;;1.10;;
35634;SDS011;21757;43.610;1.440;2023-04-15T13:39:39;3.83;;;1.20;;
35634;SDS011;21757;43.610;1.440;2023-04-15T13:42:19;5.25;;;1.27;;
35634;SDS011;21757;43.610;1.440;2023-04-15T13:45:15;4.00;;;1.42;;
35634;SDS011;21757;43.610;1.440;2023-04-15T13:47:47;3.83;;;0.90;;
35634;SDS011;21757;43.610;1.440;2023-04-15T13:50:20;5.13;;;1.38;;
35634;SDS011;21757;43.610;1.440;2023-04-15T13:53:13;7.40;;;1.27;;
35634;SDS011;21757;43.610;1.440;2023-04-15T13:59:11;7.13;;;1.30;;
35634;SDS011;21757;43.610;1.440;2023-04-15T14:01:43;2.72;;;1.20;;
35634;SDS011;21757;43.610;1.440;2023-04-15T14:04:24;6.63;;;1.50;;
35634;SDS011;21757;43.610;1.440;2023-04-15T14:06:56;5.53;;;1.05;;
35634;SDS011;21757;43.610;1.440;2023-04-15T14:09:25;3.60;;;0.80;;
35634;SDS011;21757;43.610;1.440;2023-04-15T14:12:10;5.13;;;1.20;;
35634;SDS011;21757;43.610;1.440;2023-04-15T14:14:39;4.70;;;1.08;;
35634;SDS011;21757;43.610;1.440;2023-04-15T14:17:05;4.85;;;1.10;;
35634;SDS011;21757;43.610;1.440;2023-04-15T14:19:31;3.45;;;1.00;;
35634;SDS011;21757;43.610;1.440;2023-04-15T14:21:57;4.50;;;1.10;;
35634;SDS011;21757;43.610;1.440;2023-04-15T14:24:25;4.88;;;1.48;;
35634;SDS011;21757;43.610;1.440;2023-04-15T14:26:51;4.60;;;1.00;;
35634;SDS011;21757;43.610;1.440;2023-04-15T14:29:17;4.40;;;1.30;;
35634;SDS011;21757;43.610;1.440;2023-04-15T14:31:43;3.20;;;1.38;;
35634;SDS011;21757;43.610;1.440;2023-04-15T14:34:12;3.08;;;1.20;;
35634;SDS011;21757;43.610;1.440;2023-04-15T14:36:38;4.93;;;1.25;;
35634;SDS011;21757;43.610;1.440;2023-04-15T14:39:05;4.72;;;1.13;;
35634;SDS011;21757;43.610;1.440;2023-04-15T14:41:32;4.38;;;1.02;;
35634;SDS011;21757;43.610;1.440;2023-04-15T14:43:58;3.47;;;1.20;;
35634;SDS011;21757;43.610;1.440;2023-04-15T14:46:24;4.90;;;1.20;;
35634;SDS011;21757;43.610;1.440;2023-04-15T14:48:50;7.05;;;1.70;;
35634;SDS011;21757;43.610;1.440;2023-04-15T14:51:16;6.88;;;1.40;;
35634;SDS011;21757;43.610;1.440;2023-04-15T14:53:42;4.68;;;1.17;;
35634;SDS011;21757;43.610;1.440;2023-04-15T14:56:08;6.63;;;1.42;;
35634;SDS011;21757;43.610;1.440;2023-04-15T14:58:34;3.88;;;1.27;;
35634;SDS011;21757;43.610;1.440;2023-04-15T15:01:00;5.03;;;1.33;;
35634;SDS011;21757;43.610;1.440;2023-04-15T15:03:27;3.45;;;0.80;;
35634;SDS011;21757;43.610;1.440;2023-04-15T15:05:53;3.50;;;1.30;;
35634;SDS011;21757;43.610;1.440;2023-04-15T15:08:19;4.75;;;1.15;;
35634;SDS011;21757;43.610;1.440;2023-04-15T15:10:44;6.68;;;1.08;;
35634;SDS011;21757;43.610;1.440;2023-04-15T15:13:10;7.43;;;1.15;;
35634;SDS011;21757;43.610;1.440;2023-04-15T15:15:36;4.88;;;1.10;;
35634;SDS011;21757;43.610;1.440;2023-04-15T15:18:03;8.10;;;1.50;;
35634;SDS011;21757;43.610;1.440;2023-04-15T15:20:28;6.07;;;1.40;;
35634;SDS011;21757;43.610;1.440;2023-04-15T15:22:55;3.30;;;1.30;;
35634;SDS011;21757;43.610;1.440;2023-04-15T15:25:21;5.72;;;1.60;;
35634;SDS011;21757;43.610;1.440;2023-04-15T15:27:47;7.10;;;1.67;;
35634;SDS011;21757;43.610;1.440;2023-04-15T15:30:13;4.93;;;1.50;;
35634;SDS011;21757;43.610;1.440;2023-04-15T15:32:39;8.13;;;1.50;;
35634;SDS011;21757;43.610;1.440;2023-04-15T15:35:05;3.88;;;1.30;;
35634;SDS011;21757;43.610;1.440;2023-04-15T15:37:32;3.72;;;1.10;;